Briefing drone pour Lyon (LFLL)

Rechercher une autre localisation

Conditions de vol :


Nous sommes le : Dimanche 29 mai 2022
Il est 03:00 UTC (05:00 LT)

Lever de soleil : 03:30 UTC (05:30 LT)
Coucher de soleil : 19:46 UTC (21:46 LT)

Météo

L'essentiel des conditions de vol

VIGILANCE MÉTÉO FRANCE - Rhône (69)
Pas de vigilances particulieres
CARTE TEMSI
CARTES DES FRONTS
METAR de LFLL
LFLL 290230Z 33009KT CAVOK 11/04 Q1011 NOSIG

Date d'émission: 29/05/2022
Heure d'émission: 02:30 UTC
Vent: 330° pour 9 KT (17 km/h)
Visibilité horizontale: > 10 km
Plafond : Plafond et visibilité OK (CAVOK)
Température: 11 °C
Point de rosée: 4 °C
Humidité: 62%
Pression (QNH): 1011 hPa
Conditions: Pas de changement dans les 2 heures (NOSIG)
TAF de LFLL
LFLL 281700Z 2818/2924 35018KT CAVOK TEMPO 2900/2909 35008KT

Conditions prévues :

Heure d'émission : Bulletin éffectué le 28 à 18:00 UTC
Prévision : Valide du 28 a 18:00 UTC au 29 a 23:59 UTC
Vent : 350° pour 18 KT (33 km/h)
Visibilité : > 10 km

Temporairement :

Prévision : Valide du 29 a 00:00 UTC au 29 a 09:00 UTC
Vent : 350° pour 8 KT (15 km/h)
WEBCAM POUR LYON

Réglementation

Voler en sécurité

CARTES AERONAUTIQUE 1/500.000
CARTES VAC (LFLL)
SUP AIP




Chargement des AIP...
NOTAM (LYON + Terrain à proximité / FIR )




Chargement des NOTAMS...
CONTACT PREFECTURE 69


Avertissement : Les données mises à disposition sont indicatives. Oxygène Drone ne pourra être tenu responsable de dégâts causés aux biens et aux personnes.